Terminal Aerodrome Forecast
Issued by NWS

Home | Current Version | Previous Version | Text Only | Print | Product List | Glossary On
Versions: 1 2 3 4 5 6 7 8 9 10 11 12 13 14
069
FTUS46 KMTR 261124
TAFSNS
TAF
KSNS 261124Z 2612/2712 VRB03KT P6SM FEW030 BKN250
     FM261600 12006KT P6SM SCT040 OVC200
     FM270300 26006KT 6SM -RA BR SCT008 BKN012 OVC030
     FM270800 26005KT P6SM OVC025
      TEMPO 2708/2712 6SM -DZ BR OVC020=

USA.gov is the U.S. government's official web portal to all federal, state and local government web resources and services.